Etusivu
METAR-TAF:

METAR-TAF

Lentoasemat :

Stavangerin lentoasema

Stavanger, Norja

Leveyspiiri: 58-53N, Pituuspiiri: 005-38E, korkeus merenpinnasta: 0 m

Tämänhetkinen sää

Tämä raportti tehtiin 28 minuuttia sitten, kello 10.20 UTC
Tuuli 8 kn idästä/kaakosta
Lämpötila 6°C
Kosteus 75%
Ilmanpaine 1025 hPa
Näkyvyys 10 km tai enemmän
Muutamia pilviä 2500 ft:n korkeudessa
Hajanaisia pilviä 4500 ft:n korkeudessa

METAR: ENZV 281020Z 11008KT 9999 FEW025 SCT045 06/02 Q1025 NOSIG

Aika: 11:48 (10:48 UTC)

Sääennuste

Ennuste voimassa 28. päivästä klo 06 UTC - 29. päivään klo 06 UTC
Tuuli 8 kn kaakosta
Näkyvyys 10 km tai enemmän
Muutamia pilviä 2500 ft:n korkeudessa
Hajanaisia pilviä 6000 ft:n korkeudessa

TAF: ENZV 2806/2906 14008KT 9999 FEW025 SCT060

Säähavainnot ja -ennusteet yli 4000 lentoasemalta (METAR- ja TAF-raportit).

Käytössä olevat sääasemat on merkitty karttaan keltaisilla ja punaisilla pisteillä.

Aseta hiiri pisteen päälle nähdäksesi sääaseman nimen.

Klikkaa sitten nähdäksesi säähavainnot ja -ennusteet.

Kartan vaihtaminen: klikkaa mustalla rastilla varustettuja vihreitä pisteitä, niin voit zoomata sisään; viivalla varustettua vihreää pistettä, niin voit zoomata ulos tai vihreitä nuolia, niin pääset viereisille kartoille.


METAR-TAF: